Time;durP1;ratioP1;P1;durP2;ratioP2;P2;SDS_P1;SDS_P2;PMS_P1;PMS_P2;Temp;Humidity;BMP_temperature;BMP_pressure;BME280_temperature;BME280_humidity;BME280_pressure;Samples;Min_cycle;Max_cycle;Signal;HPM_P1;HPM_P2
2021/05/12 00:02:12;;;;;;;2.15;1.55;;;10.70;99.90;;;;;;6300086;28;20435;-82
2021/05/12 00:05:13;;;;;;;1.10;0.98;;;10.50;99.90;;;;;;6317579;28;20028;-82
2021/05/12 00:08:14;;;;;;;4.40;3.60;;;10.70;99.90;;;;;;6299782;28;20055;-83
2021/05/12 00:11:14;;;;;;;1.80;1.70;;;10.40;99.90;;;;;;6300663;28;20132;-83
2021/05/12 00:14:15;;;;;;;1.10;1.10;;;10.60;99.90;;;;;;6299717;28;20028;-83
2021/05/12 00:17:19;;;;;;;1.63;1.52;;;;;;;;;;6317233;28;20024;-83
2021/05/12 00:20:24;;;;;;;2.33;1.30;;;10.30;99.90;;;;;;6317088;28;20017;-82
2021/05/12 00:23:28;;;;;;;1.77;1.20;;;10.60;99.90;;;;;;6300783;28;20173;-83
2021/05/12 00:26:38;;;;;;;1.98;1.77;;;10.50;99.90;;;;;;6316820;28;20065;-83
2021/05/12 00:29:39;;;;;;;2.85;1.70;;;10.50;99.90;;;;;;6317034;28;20047;-83
2021/05/12 00:32:41;;;;;;;2.33;1.65;;;;;;;;;;6333598;28;20055;-83
2021/05/12 00:35:42;;;;;;;1.42;1.40;;;;;;;;;;6316490;28;20028;-83
2021/05/12 00:38:43;;;;;;;1.80;1.70;;;;;;;;;;6318235;28;20024;-83
2021/05/12 00:41:44;;;;;;;1.80;1.70;;;10.20;99.90;;;;;;6317050;28;20415;-83
2021/05/12 00:44:44;;;;;;;1.63;1.50;;;10.40;99.90;;;;;;6318154;28;20024;-83
2021/05/12 00:47:51;;;;;;;2.47;1.80;;;10.50;99.90;;;;;;6317791;28;20040;-83
2021/05/12 00:50:52;;;;;;;2.05;1.75;;;;;;;;;;6316854;28;20024;-83
2021/05/12 00:53:52;;;;;;;2.13;1.73;;;10.30;99.90;;;;;;6316346;28;20024;-83
2021/05/12 00:56:53;;;;;;;1.42;1.33;;;;;;;;;;6317007;28;20047;-83
2021/05/12 00:59:54;;;;;;;1.60;1.50;;;10.50;99.90;;;;;;6316082;28;20371;-83
2021/05/12 01:02:55;;;;;;;2.00;1.67;;;;;;;;;;6316572;28;20085;-82
2021/05/12 01:05:56;;;;;;;1.27;1.17;;;10.50;99.90;;;;;;6318113;28;20028;-82
2021/05/12 01:08:57;;;;;;;1.20;1.20;;;10.30;99.90;;;;;;6316906;28;20048;-82
2021/05/12 01:11:57;;;;;;;1.45;1.35;;;10.50;99.90;;;;;;6316138;28;20090;-82
2021/05/12 01:14:58;;;;;;;2.40;1.45;;;10.20;99.90;;;;;;6299143;28;20031;-82
2021/05/12 01:18:12;;;;;;;2.70;1.38;;;10.50;99.90;;;;;;6316513;28;20537;-82
2021/05/12 01:21:12;;;;;;;1.63;1.52;;;10.20;99.90;;;;;;6316167;28;20028;-83
2021/05/12 01:24:13;;;;;;;0.98;0.98;;;;;;;;;;6316559;28;20032;-83
2021/05/12 01:27:14;;;;;;;1.92;1.05;;;10.10;99.90;;;;;;6320553;28;20025;-83
2021/05/12 01:30:15;;;;;;;1.00;1.00;;;10.40;99.90;;;;;;6303829;28;20103;-83
2021/05/12 01:33:16;;;;;;;1.05;1.00;;;;;;;;;;6322061;28;20111;-83
2021/05/12 01:36:17;;;;;;;1.25;1.15;;;10.40;99.90;;;;;;6320810;28;20039;-82
2021/05/12 01:39:18;;;;;;;0.85;0.85;;;10.20;99.90;;;;;;6303559;28;21038;-82
2021/05/12 01:42:19;;;;;;;1.30;1.10;;;;;;;;;;6303321;28;20028;-83
2021/05/12 01:45:19;;;;;;;1.67;0.77;;;10.00;99.90;;;;;;6320577;28;20024;-82
2021/05/12 01:48:20;;;;;;;0.85;0.85;;;10.00;99.90;;;;;;6303183;28;20039;-82
2021/05/12 01:51:20;;;;;;;0.90;0.90;;;10.00;99.90;;;;;;6320597;28;20380;-81
2021/05/12 01:54:21;;;;;;;0.88;0.88;;;10.30;99.90;;;;;;6303197;28;20026;-82
2021/05/12 01:57:21;;;;;;;0.95;0.90;;;10.30;99.90;;;;;;6321654;28;20081;-82
2021/05/12 02:00:25;;;;;;;1.10;1.08;;;10.00;99.90;;;;;;6320046;28;20074;-82
2021/05/12 02:03:26;;;;;;;3.25;1.02;;;10.00;99.90;;;;;;6303109;28;20058;-82
2021/05/12 02:06:26;;;;;;;0.90;0.90;;;10.20;99.90;;;;;;6302978;28;20039;-83
2021/05/12 02:09:34;;;;;;;1.33;1.23;;;9.90;99.90;;;;;;6319665;28;20027;-82
2021/05/12 02:12:35;;;;;;;0.75;0.75;;;9.80;99.90;;;;;;6302929;28;20081;-82
2021/05/12 02:15:35;;;;;;;1.42;1.33;;;10.00;99.90;;;;;;6302976;28;20032;-82
2021/05/12 02:18:36;;;;;;;3.53;1.20;;;;;;;;;;6302993;28;20047;-82
2021/05/12 02:21:37;;;;;;;1.98;1.20;;;;;;;;;;6320060;28;20028;-83
2021/05/12 02:24:38;;;;;;;1.27;1.25;;;;;;;;;;6319657;28;20100;-82
2021/05/12 02:27:39;;;;;;;1.30;1.25;;;9.90;99.90;;;;;;6319384;28;20024;-83
2021/05/12 02:30:40;;;;;;;0.82;0.82;;;9.80;99.90;;;;;;6302629;28;20067;-82
2021/05/12 02:33:41;;;;;;;1.05;1.05;;;9.80;99.90;;;;;;6319402;28;20032;-83
2021/05/12 02:36:42;;;;;;;1.50;1.38;;;;;;;;;;6302213;28;20039;-83
2021/05/12 02:39:43;;;;;;;1.58;1.40;;;9.90;99.90;;;;;;6320411;28;20028;-82
2021/05/12 02:42:43;;;;;;;2.20;1.50;;;9.60;99.90;;;;;;6302123;28;20028;-83
2021/05/12 02:45:44;;;;;;;1.50;1.40;;;;;;;;;;6319038;28;20039;-82
2021/05/12 02:48:45;;;;;;;2.40;1.50;;;9.50;99.90;;;;;;6318247;28;20036;-82
2021/05/12 02:51:45;;;;;;;1.98;1.63;;;9.50;99.90;;;;;;6302509;28;20032;-83
2021/05/12 02:54:46;;;;;;;2.60;1.50;;;;;;;;;;6319900;28;20114;-82
2021/05/12 02:57:47;;;;;;;1.67;1.58;;;9.70;99.90;;;;;;6318896;28;20073;-82
2021/05/12 03:00:48;;;;;;;3.50;1.98;;;9.50;99.90;;;;;;6318542;28;20028;-82
2021/05/12 03:03:48;;;;;;;2.05;1.70;;;9.50;99.90;;;;;;6284986;28;20063;-82
2021/05/12 03:06:49;;;;;;;1.40;1.30;;;;;;;;;;6318194;28;20104;-82
2021/05/12 03:09:50;;;;;;;2.95;2.20;;;;;;;;;;6318248;28;20035;-82
2021/05/12 03:12:51;;;;;;;2.35;2.15;;;;;;;;;;6320100;28;20347;-82
2021/05/12 03:15:52;;;;;;;2.20;2.00;;;9.50;99.90;;;;;;6319303;28;20028;-83
2021/05/12 03:18:52;;;;;;;2.65;2.00;;;9.60;99.90;;;;;;6318603;28;20026;-83
2021/05/12 03:21:56;;;;;;;2.72;1.90;;;9.40;99.90;;;;;;6301129;28;20470;-83
2021/05/12 03:24:57;;;;;;;1.90;1.80;;;9.50;99.90;;;;;;6301396;28;20059;-84
2021/05/12 03:27:58;;;;;;;2.22;1.98;;;9.40;99.90;;;;;;6301281;28;20038;-83
2021/05/12 03:30:59;;;;;;;2.78;2.00;;;9.80;99.90;;;;;;6284605;28;20131;-83
2021/05/12 03:33:59;;;;;;;2.63;2.00;;;9.30;99.90;;;;;;6319104;28;20099;-83
2021/05/12 03:37:00;;;;;;;2.15;1.88;;;9.30;99.90;;;;;;6318012;28;20031;-83
2021/05/12 03:40:01;;;;;;;3.35;1.90;;;;;;;;;;6284349;28;20039;-84
2021/05/12 03:43:05;;;;;;;2.63;2.03;;;;;;;;;;6317668;28;20059;-83
2021/05/12 03:46:06;;;;;;;2.20;2.00;;;;;;;;;;6319475;28;20359;-83
2021/05/12 03:49:07;;;;;;;2.40;1.75;;;;;;;;;;6318244;28;20074;-83
2021/05/12 03:52:08;;;;;;;1.90;1.80;;;;;;;;;;6317750;28;20525;-84
2021/05/12 03:55:09;;;;;;;3.30;2.00;;;9.50;99.90;;;;;;6319067;28;20028;-83
2021/05/12 03:58:10;;;;;;;2.15;1.95;;;;;;;;;;6301080;28;20030;-84
2021/05/12 04:01:11;;;;;;;2.67;2.00;;;;;;;;;;6300542;28;20868;-82
2021/05/12 04:04:14;;;;;;;2.30;2.10;;;9.40;99.90;;;;;;6318596;28;20027;-83
2021/05/12 04:07:15;;;;;;;4.03;2.38;;;9.60;99.90;;;;;;6300369;28;20055;-82
2021/05/12 04:10:16;;;;;;;2.30;2.10;;;9.50;99.90;;;;;;6300169;28;20059;-82
2021/05/12 04:13:18;;;;;;;4.78;3.30;;;9.40;99.90;;;;;;6317366;28;20039;-82
2021/05/12 04:16:18;;;;;;;3.65;3.08;;;9.40;99.90;;;;;;6316968;28;20119;-82
2021/05/12 04:19:19;;;;;;;4.20;2.65;;;9.40;99.90;;;;;;6300281;28;20032;-83
2021/05/12 04:22:20;;;;;;;4.07;2.70;;;9.20;99.90;;;;;;6300341;28;20099;-82
2021/05/12 04:25:22;;;;;;;7.45;6.82;;;9.40;99.90;;;;;;6283501;28;20030;-83
2021/05/12 04:28:22;;;;;;;3.50;3.20;;;9.40;99.90;;;;;;6316716;28;20620;-82
2021/05/12 04:31:23;;;;;;;3.80;3.50;;;9.30;99.90;;;;;;6317675;28;20032;-82
2021/05/12 04:34:24;;;;;;;3.75;2.45;;;9.30;99.90;;;;;;6283154;28;20027;-82
2021/05/12 04:37:24;;;;;;;2.80;2.20;;;9.40;99.90;;;;;;6316507;28;20027;-82
2021/05/12 04:40:28;;;;;;;2.85;2.47;;;9.40;99.90;;;;;;6316816;28;20039;-83
2021/05/12 04:43:28;;;;;;;5.22;2.65;;;9.40;99.90;;;;;;6316399;28;20085;-83
2021/05/12 04:46:29;;;;;;;5.60;2.42;;;9.50;99.90;;;;;;6299996;28;20523;-82
2021/05/12 04:49:30;;;;;;;2.63;2.42;;;9.40;99.90;;;;;;6283859;28;20032;-86
2021/05/12 04:52:31;;;;;;;3.55;2.53;;;;;;;;;;6283377;28;20481;-83
2021/05/12 04:55:31;;;;;;;7.88;3.50;;;9.40;99.90;;;;;;6316217;28;20035;-81
2021/05/12 04:58:32;;;;;;;4.72;3.22;;;;;;;;;;6300286;28;20024;-79
2021/05/12 05:01:33;;;;;;;7.30;4.22;;;9.70;99.90;;;;;;6321677;28;20031;-79
2021/05/12 05:04:35;;;;;;;5.03;2.90;;;;;;;;;;6321403;28;20453;-85
2021/05/12 05:07:36;;;;;;;4.65;3.83;;;9.50;99.90;;;;;;6322058;28;20075;-82
2021/05/12 05:10:37;;;;;;;5.97;3.05;;;9.50;99.90;;;;;;6304708;28;20093;-79
2021/05/12 05:13:38;;;;;;;3.92;2.90;;;;;;;;;;6304264;28;20412;-84
2021/05/12 05:16:39;;;;;;;2.80;2.50;;;9.60;99.90;;;;;;6321301;28;20054;-83
2021/05/12 05:19:39;;;;;;;4.05;2.40;;;9.60;99.90;;;;;;6304556;28;20462;-81
2021/05/12 05:22:41;;;;;;;3.35;2.40;;;9.70;99.90;;;;;;6304352;28;20024;-83
2021/05/12 05:25:41;;;;;;;3.33;2.78;;;9.70;99.90;;;;;;6304600;28;20028;-82
2021/05/12 05:28:42;;;;;;;6.53;3.33;;;;;;;;;;6303808;28;20040;-83
2021/05/12 05:31:43;;;;;;;3.70;2.47;;;9.60;99.90;;;;;;6320928;28;20026;-78
2021/05/12 05:34:43;;;;;;;3.22;2.47;;;9.50;99.90;;;;;;6322299;28;20362;-81
2021/05/12 05:37:44;;;;;;;3.92;2.50;;;9.80;99.90;;;;;;6286862;28;20135;-82
2021/05/12 05:40:45;;;;;;;4.07;2.80;;;9.90;99.90;;;;;;6302713;28;20537;-84
2021/05/12 05:43:46;;;;;;;3.00;2.60;;;9.90;99.90;;;;;;6303643;28;20030;-81
2021/05/12 05:46:47;;;;;;;9.95;3.22;;;;;;;;;;6320589;28;20040;-80
2021/05/12 05:49:48;;;;;;;7.32;5.10;;;9.70;99.90;;;;;;6320699;28;20115;-80
2021/05/12 05:52:49;;;;;;;105.63;51.05;;;9.80;99.90;;;;;;6303411;28;20028;-79
2021/05/12 05:55:49;;;;;;;132.95;61.42;;;9.70;99.90;;;;;;6320264;28;20082;-80
2021/05/12 05:58:50;;;;;;;18.33;15.02;;;10.00;99.90;;;;;;6320156;28;20382;-84
2021/05/12 06:01:51;;;;;;;5.88;4.72;;;;;;;;;;6286883;28;20109;-81
2021/05/12 06:04:52;;;;;;;4.57;3.20;;;9.70;99.90;;;;;;6319828;28;20466;-81
2021/05/12 06:08:00;;;;;;;5.63;3.97;;;9.70;99.90;;;;;;6286509;28;20059;-80
2021/05/12 06:11:01;;;;;;;3.25;2.92;;;10.10;99.90;;;;;;6302552;28;20066;-81
2021/05/12 06:14:01;;;;;;;3.72;2.58;;;9.80;99.90;;;;;;6286672;28;20393;-82
2021/05/12 06:17:02;;;;;;;5.00;3.00;;;9.80;99.90;;;;;;6303346;28;20024;-81
2021/05/12 06:20:03;;;;;;;4.68;2.78;;;9.80;99.90;;;;;;6286403;28;20024;-81
2021/05/12 06:23:04;;;;;;;2.75;2.45;;;9.90;99.90;;;;;;6286206;28;20028;-81
2021/05/12 06:26:13;;;;;;;13.90;8.75;;;9.90;99.90;;;;;;6286209;28;20389;-81
2021/05/12 06:29:14;;;;;;;4.90;3.75;;;10.10;99.90;;;;;;6304132;28;20032;-81
2021/05/12 06:32:15;;;;;;;16.52;8.82;;;10.00;99.90;;;;;;6285627;28;20032;-81
2021/05/12 06:35:16;;;;;;;9.38;5.38;;;10.10;99.90;;;;;;6302795;28;20035;-81
2021/05/12 06:38:16;;;;;;;4.28;3.20;;;10.10;99.90;;;;;;6302274;28;20040;-83
2021/05/12 06:41:20;;;;;;;3.88;2.95;;;10.10;99.90;;;;;;6302494;28;20032;-82
2021/05/12 06:44:22;;;;;;;14.18;7.63;;;10.30;99.90;;;;;;6303021;28;20028;-84
2021/05/12 06:47:23;;;;;;;5.68;3.80;;;;;;;;;;6302485;28;20031;-84
2021/05/12 06:50:24;;;;;;;4.45;2.90;;;10.20;99.90;;;;;;6301930;28;20032;-83
2021/05/12 06:53:29;;;;;;;6.15;3.95;;;10.30;99.90;;;;;;6302853;28;20115;-82
2021/05/12 06:56:29;;;;;;;3.30;2.30;;;10.70;99.90;;;;;;6302905;28;20480;-85
2021/05/12 06:59:30;;;;;;;3.42;2.30;;;;;;;;;;6302972;28;20028;-83
2021/05/12 07:02:31;;;;;;;3.80;2.63;;;10.30;99.90;;;;;;6313378;28;20032;-81
2021/05/12 07:05:32;;;;;;;2.90;2.60;;;10.20;99.90;;;;;;6301928;28;20431;-83
2021/05/12 07:08:37;;;;;;;6.85;4.50;;;10.50;99.90;;;;;;6301387;28;20056;-82
2021/05/12 07:11:37;;;;;;;9.50;5.53;;;10.50;99.90;;;;;;6302545;28;20111;-84
2021/05/12 07:14:38;;;;;;;6.57;3.05;;;;;;;;;;6302322;28;20032;-82
2021/05/12 07:17:42;;;;;;;7.75;4.72;;;10.70;99.90;;;;;;6319773;28;20473;-81
2021/05/12 07:20:43;;;;;;;7.47;4.57;;;10.70;99.90;;;;;;6302126;28;20032;-82
2021/05/12 07:23:44;;;;;;;4.43;2.88;;;10.50;99.90;;;;;;6301154;28;20491;-82
2021/05/12 07:26:45;;;;;;;7.25;4.30;;;;;;;;;;6318210;28;20032;-81
2021/05/12 07:29:46;;;;;;;7.15;4.38;;;;;;;;;;6317983;28;20097;-82
2021/05/12 07:32:49;;;;;;;5.38;3.33;;;;;;;;;;6318473;28;20024;-84
2021/05/12 07:35:59;;;;;;;;;;;11.10;99.90;;;;;;6318736;28;20016;-83
2021/05/12 07:39:00;;;;;;;6.13;2.60;;;;;;;;;;6318731;28;19912;-85
2021/05/12 07:42:03;;;;;;;3.90;2.53;;;;;;;;;;6317977;28;20471;-83
2021/05/12 07:45:05;;;;;;;5.63;3.22;;;;;;;;;;6318004;28;20036;-82
2021/05/12 07:48:06;;;;;;;5.50;3.78;;;11.40;99.90;;;;;;6301141;28;20078;-83
2021/05/12 07:51:06;;;;;;;3.75;2.70;;;11.70;99.90;;;;;;6300683;28;20081;-83
2021/05/12 07:54:07;;;;;;;5.95;2.63;;;;;;;;;;6300796;28;20417;-82
2021/05/12 07:57:08;;;;;;;5.22;2.80;;;11.90;99.90;;;;;;6317403;28;20051;-84
2021/05/12 08:00:10;;;;;;;5.00;2.63;;;12.20;99.90;;;;;;6283956;28;20371;-84
2021/05/12 08:03:11;;;;;;;4.67;2.83;;;;;;;;;;6283580;28;20035;-84
2021/05/12 08:06:12;;;;;;;5.00;2.50;;;12.70;99.10;;;;;;6316953;28;20270;-82
2021/05/12 08:09:13;;;;;;;3.67;2.28;;;;;;;;;;6300287;28;20486;-81
2021/05/12 08:12:13;;;;;;;5.13;2.60;;;13.20;98.10;;;;;;6317293;28;20359;-81
2021/05/12 08:15:14;;;;;;;3.10;2.47;;;13.30;98.60;;;;;;6318767;28;20020;-82
2021/05/12 08:18:14;;;;;;;7.75;2.70;;;13.90;99.00;;;;;;6300298;28;20385;-84
2021/05/12 08:21:15;;;;;;;4.43;2.40;;;13.40;98.40;;;;;;6300450;28;20036;-81
2021/05/12 08:24:16;;;;;;;9.88;2.85;;;13.50;97.80;;;;;;6300045;28;20028;-81
2021/05/12 08:27:17;;;;;;;4.72;3.03;;;;;;;;;;6300308;28;20393;-83
2021/05/12 08:30:18;;;;;;;3.35;2.50;;;13.80;96.80;;;;;;6303946;28;20177;-83
2021/05/12 08:33:19;;;;;;;3.00;2.40;;;14.20;98.50;;;;;;6299754;28;20036;-84
2021/05/12 08:36:20;;;;;;;4.00;2.72;;;14.20;97.00;;;;;;6316853;28;20051;-84
2021/05/12 08:39:20;;;;;;;5.78;4.25;;;14.70;96.20;;;;;;6283401;28;20032;-82
2021/05/12 08:42:21;;;;;;;4.30;3.00;;;14.80;93.50;;;;;;6299956;28;20073;-81
2021/05/12 08:45:21;;;;;;;5.43;2.45;;;15.70;99.90;;;;;;6299535;28;20665;-81
2021/05/12 08:48:23;;;;;;;4.72;2.97;;;15.50;93.50;;;;;;6316853;28;20044;-82
2021/05/12 08:51:26;;;;;;;4.03;2.40;;;16.10;93.50;;;;;;6300021;28;20059;-82
2021/05/12 08:54:26;;;;;;;4.18;2.40;;;16.50;91.60;;;;;;6283805;28;20032;-82
2021/05/12 08:57:27;;;;;;;5.30;2.63;;;17.20;91.80;;;;;;6299680;28;20063;-82
2021/05/12 09:00:28;;;;;;;3.45;2.63;;;17.50;90.80;;;;;;6299596;28;20481;-83
2021/05/12 09:03:29;;;;;;;4.32;2.38;;;;;;;;;;6316341;28;20028;-82
2021/05/12 09:06:32;;;;;;;6.00;2.53;;;19.10;84.00;;;;;;6317642;28;20481;-81
2021/05/12 09:09:32;;;;;;;3.95;2.20;;;20.00;79.20;;;;;;6299603;28;20043;-83
2021/05/12 09:12:56;;;;;;;4.20;2.30;;;20.30;76.50;;;;;;6282970;28;20028;-82
2021/05/12 09:16:20;;;;;;;4.15;2.30;;;20.30;76.30;;;;;;6300126;28;20039;-82
2021/05/12 09:19:22;;;;;;;2.78;2.20;;;20.50;71.70;;;;;;6299334;28;20020;-83
2021/05/12 09:22:23;;;;;;;5.82;2.20;;;19.70;87.20;;;;;;6299213;28;20657;-80
2021/05/12 09:25:23;;;;;;;3.70;2.35;;;19.60;73.40;;;;;;6299265;28;20032;-81
2021/05/12 09:28:27;;;;;;;4.25;2.10;;;20.00;72.40;;;;;;6282557;28;20123;-82
2021/05/12 09:31:34;;;;;;;4.28;2.55;;;21.00;68.50;;;;;;6282626;28;20039;-83
2021/05/12 09:34:51;;;;;;;5.25;2.75;;;21.30;63.70;;;;;;6300152;28;20388;-81
2021/05/12 09:37:52;;;;;;;4.55;2.25;;;19.20;66.70;;;;;;6316210;28;20096;-82
2021/05/12 09:41:12;;;;;;;4.57;2.55;;;20.70;64.90;;;;;;6299034;28;20032;-81
2021/05/12 09:44:13;;;;;;;6.13;2.85;;;19.70;69.40;;;;;;6299551;28;20602;-81
2021/05/12 09:47:29;;;;;;;5.22;2.65;;;18.90;74.80;;;;;;6302112;28;20059;-82
2021/05/12 09:50:39;;;;;;;5.35;2.70;;;18.20;78.60;;;;;;6303872;28;20032;-83
2021/05/12 09:53:40;;;;;;;3.85;2.53;;;17.40;81.50;;;;;;6305118;28;20024;-81
2021/05/12 09:56:56;;;;;;;5.57;2.72;;;16.80;87.10;;;;;;6287241;28;20031;-81
2021/05/12 09:59:57;;;;;;;3.90;2.65;;;16.50;90.20;;;;;;6287416;28;20032;-80
2021/05/12 10:02:58;;;;;;;5.80;2.40;;;16.10;91.30;;;;;;6303338;28;20097;-81
2021/05/12 10:06:02;;;;;;;6.45;2.67;;;15.90;91.70;;;;;;6286693;28;20079;-81
2021/05/12 10:09:17;;;;;;;3.25;2.50;;;15.80;91.90;;;;;;6287034;28;20421;-81
2021/05/12 10:12:25;;;;;;;3.47;2.40;;;15.80;91.70;;;;;;6286455;28;20073;-81
2021/05/12 10:15:25;;;;;;;3.97;2.40;;;15.80;90.60;;;;;;6304194;28;20035;-79
2021/05/12 10:18:26;;;;;;;3.17;2.40;;;15.90;93.20;;;;;;6285994;28;20028;-80
2021/05/12 10:21:26;;;;;;;3.70;2.38;;;16.20;90.60;;;;;;6303035;28;20043;-80
2021/05/12 10:24:28;;;;;;;6.30;2.80;;;16.40;87.80;;;;;;6303030;28;20101;-81
2021/05/12 10:27:30;;;;;;;6.87;3.00;;;;;;;;;;6319806;28;20077;-81
2021/05/12 10:30:31;;;;;;;6.10;2.30;;;17.10;93.90;;;;;;6319821;28;20604;-81
2021/05/12 10:33:53;;;;;;;3.92;2.40;;;17.90;82.90;;;;;;6302646;28;20039;-80
2021/05/12 10:37:13;;;;;;;;;;;17.20;79.70;;;;;;6304771;28;20035;-80
2021/05/12 10:40:18;;;;;;;4.85;2.60;;;17.30;78.60;;;;;;6320769;28;19915;-80
2021/05/12 10:43:27;;;;;;;3.50;2.20;;;17.70;93.20;;;;;;6302136;28;20024;-81
2021/05/12 10:46:29;;;;;;;4.72;2.70;;;17.90;93.10;;;;;;6319988;28;20028;-82
2021/05/12 10:49:30;;;;;;;34.35;20.90;;;18.10;83.50;;;;;;6316971;28;20466;-80
2021/05/12 10:52:31;;;;;;;7.93;3.00;;;17.60;75.40;;;;;;6302419;28;20076;-81
2021/05/12 10:55:57;;;;;;;3.00;2.33;;;17.60;76.10;;;;;;6302083;28;20068;-81
2021/05/12 10:58:59;;;;;;;3.70;2.40;;;17.40;76.90;;;;;;6320199;28;20036;-82
2021/05/12 11:02:00;;;;;;;5.18;2.50;;;17.30;80.20;;;;;;6318948;28;20378;-81
2021/05/12 11:05:00;;;;;;;6.93;2.67;;;17.20;81.80;;;;;;6302114;28;20032;-81
2021/05/12 11:08:17;;;;;;;4.53;2.65;;;17.50;92.50;;;;;;6300929;28;20056;-81
2021/05/12 11:11:18;;;;;;;4.35;2.72;;;17.30;77.20;;;;;;6318794;28;20404;-82
2021/05/12 11:14:26;;;;;;;4.85;2.33;;;17.30;93.30;;;;;;6301985;28;20039;-81
2021/05/12 11:17:43;;;;;;;3.95;2.53;;;17.10;92.70;;;;;;6301580;28;20048;-80
2021/05/12 11:20:44;;;;;;;5.13;2.85;;;17.40;80.20;;;;;;6301660;28;20412;-84
2021/05/12 11:24:07;;;;;;;8.00;3.05;;;17.40;80.20;;;;;;6301637;28;20052;-82
2021/05/12 11:28:08;;;;;;;5.75;2.70;;;17.40;94.70;;;;;;6317332;28;20072;-80
2021/05/12 11:33:59;;;;;;;5.60;2.97;;;17.50;81.70;;;;;;6304149;28;20458;-83
2021/05/12 11:37:16;;;;;;;22.05;15.00;;;17.10;82.30;;;;;;6300998;28;20074;-83
2021/05/12 11:40:17;;;;;;;4.97;2.60;;;17.10;82.10;;;;;;6285763;28;20036;-81
2021/05/12 11:43:17;;;;;;;3.35;2.50;;;16.90;93.80;;;;;;6317769;28;20030;-83
2021/05/12 11:46:24;;;;;;;7.25;2.80;;;16.80;80.80;;;;;;6301033;28;20377;-83
2021/05/12 11:49:28;;;;;;;8.52;3.50;;;17.00;75.80;;;;;;6318084;28;20085;-85
2021/05/12 11:52:30;;;;;;;4.85;2.97;;;17.00;82.40;;;;;;6300811;28;20031;-85
2021/05/12 11:55:31;;;;;;;11.88;3.20;;;17.00;80.70;;;;;;6284184;28;20486;-84
2021/05/12 11:58:32;;;;;;;5.20;3.03;;;16.90;81.70;;;;;;6300704;28;20446;-86
2021/05/12 12:01:48;;;;;;;6.07;3.70;;;17.00;80.80;;;;;;6300825;28;20024;-84
2021/05/12 12:04:57;;;;;;;8.05;3.70;;;16.90;93.00;;;;;;6303007;28;21033;-85
2021/05/12 12:08:21;;;;;;;3.10;2.67;;;17.00;91.60;;;;;;6300861;28;20517;-85
2021/05/12 12:11:22;;;;;;;9.75;4.45;;;16.90;76.30;;;;;;6269939;28;20032;-86
2021/05/12 12:14:36;;;;;;;5.60;3.00;;;16.70;82.90;;;;;;6283476;28;20428;-84
2021/05/12 12:17:36;;;;;;;12.32;4.35;;;17.10;77.60;;;;;;6283087;28;20065;-84
2021/05/12 12:20:43;;;;;;;8.73;2.90;;;16.80;81.40;;;;;;6282993;28;20024;-85
2021/05/12 12:23:44;;;;;;;6.88;2.85;;;16.40;90.30;;;;;;6316391;28;20067;-82
2021/05/12 12:26:50;;;;;;;5.95;2.47;;;16.60;81.60;;;;;;6300157;28;20051;-86
2021/05/12 12:29:51;;;;;;;4.90;2.63;;;16.70;81.50;;;;;;6300621;28;20564;-85
2021/05/12 12:32:51;;;;;;;5.57;3.72;;;16.70;92.30;;;;;;6299465;28;20038;-84
2021/05/12 12:36:06;;;;;;;4.85;3.40;;;17.30;92.50;;;;;;6299169;28;20569;-80
2021/05/12 12:39:07;;;;;;;6.70;4.55;;;16.90;75.30;;;;;;6283897;28;20132;-83
2021/05/12 12:42:07;;;;;;;7.03;4.20;;;17.10;78.20;;;;;;6299522;28;20028;-85
2021/05/12 12:45:28;;;;;;;4.93;3.15;;;17.50;77.10;;;;;;6279473;28;20496;-84
2021/05/12 12:48:28;;;;;;;5.30;2.58;;;17.30;91.50;;;;;;6316287;28;20052;-85
2021/05/12 12:51:34;;;;;;;4.53;2.40;;;17.40;87.30;;;;;;6283149;28;20625;-85
2021/05/12 12:54:50;;;;;;;5.68;3.03;;;17.00;89.20;;;;;;6299785;28;20061;-84
2021/05/12 12:58:02;;;;;;;4.40;2.30;;;17.00;70.80;;;;;;6303971;28;20055;-82
2021/05/12 13:01:02;;;;;;;5.15;2.97;;;17.10;73.10;;;;;;6299357;28;20024;-81
2021/05/12 13:04:19;;;;;;;3.63;2.40;;;17.10;73.20;;;;;;6299053;28;20445;-82
2021/05/12 13:07:20;;;;;;;4.20;2.30;;;17.10;67.10;;;;;;6299813;28;20818;-82
2021/05/12 13:10:24;;;;;;;5.70;2.40;;;16.80;83.30;;;;;;6317676;28;20032;-81
2021/05/12 13:13:29;;;;;;;4.75;2.53;;;16.80;71.80;;;;;;6315719;28;20024;-81
2021/05/12 13:16:32;;;;;;;5.63;2.70;;;16.70;68.40;;;;;;6316159;28;20129;-81
2021/05/12 13:19:40;;;;;;;3.13;2.42;;;16.70;72.80;;;;;;6318048;28;20064;-84
2021/05/12 13:22:40;;;;;;;5.07;2.53;;;16.70;73.80;;;;;;6287600;28;20035;-82
2021/05/12 13:25:49;;;;;;;4.90;2.40;;;16.60;87.20;;;;;;6320290;28;20024;-82
2021/05/12 13:28:50;;;;;;;4.38;2.40;;;16.60;75.00;;;;;;6298146;28;20047;-82
2021/05/12 13:31:52;;;;;;;4.47;2.38;;;16.40;86.20;;;;;;6287117;28;20386;-79
2021/05/12 13:34:52;;;;;;;2.40;1.92;;;16.50;74.80;;;;;;6302986;28;20038;-82
2021/05/12 13:37:53;;;;;;;3.33;2.35;;;16.40;71.20;;;;;;6303748;28;20036;-81
2021/05/12 13:40:53;;;;;;;3.38;2.50;;;16.40;72.20;;;;;;6319967;28;20035;-81
2021/05/12 13:43:54;;;;;;;4.40;2.30;;;16.50;70.80;;;;;;6302281;28;20031;-80
2021/05/12 13:46:55;;;;;;;5.32;2.50;;;16.40;72.80;;;;;;6320693;28;20032;-83
2021/05/12 13:49:56;;;;;;;5.25;2.50;;;;;;;;;;6303940;28;20023;-82
2021/05/12 14:02:54;;;;;;;5.75;2.65;;;16.20;91.30;;;;;;6319756;28;20119;-82
2021/05/12 14:05:31;;;;;;;4.45;2.45;;;16.40;75.90;;;;;;6304360;28;20043;-81
2021/05/12 14:08:32;;;;;;;4.95;2.05;;;16.30;90.70;;;;;;6336710;28;20087;-82
2021/05/12 14:11:33;;;;;;;4.70;2.55;;;15.80;90.70;;;;;;6302478;28;20028;-81
2021/05/12 14:17:37;;;;;;;4.10;2.17;;;15.90;72.60;;;;;;6303349;28;20040;-83
2021/05/12 14:20:38;;;;;;;5.60;2.85;;;15.80;95.30;;;;;;6320407;28;20378;-82
2021/05/12 14:23:38;;;;;;;3.92;2.30;;;15.80;85.10;;;;;;6319863;28;20039;-82
2021/05/12 14:26:39;;;;;;;3.38;2.20;;;;;;;;;;6319302;28;20032;-82
2021/05/12 14:29:41;;;;;;;7.13;2.70;;;;;;;;;;6320814;28;20059;-82
2021/05/12 14:32:42;;;;;;;3.45;2.33;;;;;;;;;;6318609;28;20024;-80
2021/05/12 14:35:43;;;;;;;4.47;2.30;;;15.90;96.50;;;;;;6320632;28;20398;-82
2021/05/12 14:38:44;;;;;;;3.45;2.13;;;15.70;88.80;;;;;;6302070;28;20120;-84
2021/05/12 14:41:45;;;;;;;2.33;1.92;;;;;;;;;;6286015;28;20031;-80
2021/05/12 14:44:45;;;;;;;3.10;2.63;;;15.80;81.10;;;;;;6318984;28;20032;-80
2021/05/12 14:48:04;;;;;;;3.42;1.80;;;16.00;69.70;;;;;;6302245;28;20058;-80
2021/05/12 14:51:08;;;;;;;5.75;2.53;;;;;;;;;;6304775;28;20023;-80
2021/05/12 14:54:13;;;;;;;2.78;1.95;;;16.00;82.80;;;;;;6318916;28;20027;-80
2021/05/12 14:57:31;;;;;;;2.70;1.90;;;15.80;82.20;;;;;;6320295;28;20082;-80
2021/05/12 15:01:05;;;;;;;4.32;2.38;;;15.60;89.90;;;;;;6305014;28;20020;-80
2021/05/12 15:07:15;;;;;;;3.50;2.13;;;15.60;94.60;;;;;;6302285;28;20051;-80
2021/05/12 15:10:16;;;;;;;3.10;1.88;;;;;;;;;;6318301;28;20038;-81
2021/05/12 15:13:17;;;;;;;3.20;1.73;;;15.70;78.40;;;;;;6319902;28;20024;-80
2021/05/12 15:16:20;;;;;;;5.70;1.90;;;;;;;;;;6301134;28;20039;-81
2021/05/12 15:19:20;;;;;;;2.60;2.08;;;15.70;94.80;;;;;;6318432;28;20032;-80
2021/05/12 15:22:21;;;;;;;2.55;2.00;;;;;;;;;;6301482;28;20366;-80
2021/05/12 15:25:22;;;;;;;2.67;1.73;;;;;;;;;;6318037;28;20454;-80
2021/05/12 15:28:23;;;;;;;3.13;2.20;;;;;;;;;;6318208;28;20046;-80
2021/05/12 15:31:24;;;;;;;5.57;2.38;;;;;;;;;;6318213;28;20024;-81
2021/05/12 15:34:25;;;;;;;6.35;1.92;;;15.10;93.50;;;;;;6318106;28;20051;-81
2021/05/12 15:37:26;;;;;;;5.57;2.42;;;;;;;;;;6301172;28;20032;-80
2021/05/12 15:40:27;;;;;;;3.00;2.45;;;14.70;95.10;;;;;;6318089;28;20032;-81
2021/05/12 15:43:28;;;;;;;3.23;2.33;;;14.60;83.90;;;;;;6300212;28;20039;-81
2021/05/12 15:46:29;;;;;;;2.95;1.92;;;14.90;97.00;;;;;;6317594;28;20734;-79
2021/05/12 15:49:30;;;;;;;7.93;2.47;;;;;;;;;;6284326;28;20043;-80
2021/05/12 15:52:31;;;;;;;3.55;2.17;;;14.30;97.40;;;;;;6317656;28;20100;-81
2021/05/12 15:55:32;;;;;;;2.88;2.03;;;14.30;97.60;;;;;;6300689;28;20106;-81
2021/05/12 15:58:32;;;;;;;5.20;2.22;;;14.00;97.50;;;;;;6300277;28;20034;-81
2021/05/12 16:01:33;;;;;;;2.45;1.83;;;14.30;98.20;;;;;;6300587;28;20032;-81
2021/05/12 16:04:34;;;;;;;2.83;2.25;;;14.00;98.40;;;;;;6300971;28;20110;-80
2021/05/12 16:07:34;;;;;;;2.60;2.03;;;14.10;98.80;;;;;;6283317;28;20454;-80
2021/05/12 16:10:38;;;;;;;3.53;2.30;;;;;;;;;;6283472;28;20032;-81
2021/05/12 16:13:39;;;;;;;3.78;2.05;;;14.10;99.60;;;;;;6317305;28;20028;-80
2021/05/12 16:16:49;;;;;;;2.05;1.88;;;14.10;99.20;;;;;;6316373;28;20393;-80
2021/05/12 16:19:49;;;;;;;4.13;2.55;;;14.00;99.90;;;;;;6301914;28;20031;-81
2021/05/12 16:22:50;;;;;;;4.80;2.35;;;14.00;99.90;;;;;;6300114;28;20478;-80
2021/05/12 16:25:51;;;;;;;3.90;2.50;;;;;;;;;;6300206;28;20032;-81
2021/05/12 16:28:51;;;;;;;4.30;2.53;;;13.70;99.90;;;;;;6316775;28;20043;-82
2021/05/12 16:31:52;;;;;;;3.05;2.15;;;;;;;;;;6283820;28;20028;-80
2021/05/12 16:34:54;;;;;;;3.03;2.10;;;;;;;;;;6318847;28;20369;-83
2021/05/12 16:37:55;;;;;;;4.13;3.45;;;13.80;99.90;;;;;;6317432;28;20028;-82
2021/05/12 16:40:57;;;;;;;5.22;4.40;;;;;;;;;;6284351;28;20078;-82